sensor_id;sensor_type;location;lat;lon;timestamp;P1;durP1;ratioP1;P2;durP2;ratioP2
61840;SDS011;47773;53.174;6.614;2023-07-16T00:01:34;19.05;;;3.42;;
61840;SDS011;47773;53.174;6.614;2023-07-16T00:03:59;16.70;;;3.42;;
61840;SDS011;47773;53.174;6.614;2023-07-16T00:06:25;17.98;;;3.70;;
61840;SDS011;47773;53.174;6.614;2023-07-16T00:08:51;21.35;;;3.30;;
61840;SDS011;47773;53.174;6.614;2023-07-16T00:11:16;22.30;;;3.80;;
61840;SDS011;47773;53.174;6.614;2023-07-16T00:13:42;22.58;;;3.58;;
61840;SDS011;47773;53.174;6.614;2023-07-16T00:16:12;21.88;;;3.80;;
61840;SDS011;47773;53.174;6.614;2023-07-16T00:18:44;21.65;;;3.55;;
61840;SDS011;47773;53.174;6.614;2023-07-16T00:21:10;16.40;;;3.40;;
61840;SDS011;47773;53.174;6.614;2023-07-16T00:23:36;15.25;;;3.58;;
61840;SDS011;47773;53.174;6.614;2023-07-16T00:26:02;20.88;;;3.83;;
61840;SDS011;47773;53.174;6.614;2023-07-16T00:28:28;18.38;;;3.60;;
61840;SDS011;47773;53.174;6.614;2023-07-16T00:30:54;16.40;;;3.28;;
61840;SDS011;47773;53.174;6.614;2023-07-16T00:33:20;20.00;;;4.75;;
61840;SDS011;47773;53.174;6.614;2023-07-16T00:35:49;17.50;;;4.03;;
61840;SDS011;47773;53.174;6.614;2023-07-16T00:38:16;18.13;;;3.72;;
61840;SDS011;47773;53.174;6.614;2023-07-16T00:40:42;18.65;;;3.95;;
61840;SDS011;47773;53.174;6.614;2023-07-16T00:43:08;19.23;;;3.65;;
61840;SDS011;47773;53.174;6.614;2023-07-16T00:45:35;20.80;;;4.30;;
61840;SDS011;47773;53.174;6.614;2023-07-16T00:48:01;13.05;;;3.47;;
61840;SDS011;47773;53.174;6.614;2023-07-16T00:50:27;22.67;;;3.65;;
61840;SDS011;47773;53.174;6.614;2023-07-16T00:52:54;22.23;;;3.90;;
61840;SDS011;47773;53.174;6.614;2023-07-16T00:55:19;16.23;;;3.42;;
61840;SDS011;47773;53.174;6.614;2023-07-16T00:57:45;22.70;;;3.30;;
61840;SDS011;47773;53.174;6.614;2023-07-16T01:00:12;23.80;;;4.25;;
61840;SDS011;47773;53.174;6.614;2023-07-16T01:02:38;17.40;;;3.35;;
61840;SDS011;47773;53.174;6.614;2023-07-16T01:05:04;17.08;;;4.32;;
61840;SDS011;47773;53.174;6.614;2023-07-16T01:07:31;20.73;;;3.65;;
61840;SDS011;47773;53.174;6.614;2023-07-16T01:09:57;16.65;;;3.65;;
61840;SDS011;47773;53.174;6.614;2023-07-16T01:12:23;16.08;;;3.83;;
61840;SDS011;47773;53.174;6.614;2023-07-16T01:14:52;23.95;;;4.35;;
61840;SDS011;47773;53.174;6.614;2023-07-16T01:17:18;22.23;;;5.18;;
61840;SDS011;47773;53.174;6.614;2023-07-16T01:19:44;19.58;;;4.65;;
61840;SDS011;47773;53.174;6.614;2023-07-16T01:22:20;19.73;;;3.90;;
61840;SDS011;47773;53.174;6.614;2023-07-16T01:25:13;20.42;;;3.75;;
61840;SDS011;47773;53.174;6.614;2023-07-16T01:27:57;17.65;;;4.00;;
61840;SDS011;47773;53.174;6.614;2023-07-16T01:30:31;28.77;;;4.13;;
61840;SDS011;47773;53.174;6.614;2023-07-16T01:32:57;20.58;;;3.85;;
61840;SDS011;47773;53.174;6.614;2023-07-16T01:35:24;17.08;;;3.60;;
61840;SDS011;47773;53.174;6.614;2023-07-16T01:37:51;26.48;;;4.03;;
61840;SDS011;47773;53.174;6.614;2023-07-16T01:40:16;23.48;;;4.53;;
61840;SDS011;47773;53.174;6.614;2023-07-16T01:42:42;22.00;;;3.63;;
61840;SDS011;47773;53.174;6.614;2023-07-16T01:45:08;26.83;;;4.10;;
61840;SDS011;47773;53.174;6.614;2023-07-16T01:50:14;17.13;;;3.38;;
61840;SDS011;47773;53.174;6.614;2023-07-16T01:52:40;16.33;;;3.60;;
61840;SDS011;47773;53.174;6.614;2023-07-16T01:55:05;23.40;;;4.28;;
61840;SDS011;47773;53.174;6.614;2023-07-16T01:57:31;13.23;;;3.03;;
61840;SDS011;47773;53.174;6.614;2023-07-16T01:59:57;14.82;;;2.92;;
61840;SDS011;47773;53.174;6.614;2023-07-16T02:02:23;16.08;;;3.78;;
61840;SDS011;47773;53.174;6.614;2023-07-16T02:04:49;21.70;;;3.40;;
61840;SDS011;47773;53.174;6.614;2023-07-16T02:07:14;17.10;;;2.80;;
61840;SDS011;47773;53.174;6.614;2023-07-16T02:09:40;16.55;;;3.45;;
61840;SDS011;47773;53.174;6.614;2023-07-16T02:12:06;13.60;;;2.75;;
61840;SDS011;47773;53.174;6.614;2023-07-16T02:14:32;16.52;;;3.40;;
61840;SDS011;47773;53.174;6.614;2023-07-16T02:16:57;20.10;;;3.42;;
61840;SDS011;47773;53.174;6.614;2023-07-16T02:19:23;14.63;;;3.67;;
61840;SDS011;47773;53.174;6.614;2023-07-16T02:21:50;15.20;;;3.72;;
61840;SDS011;47773;53.174;6.614;2023-07-16T02:24:16;13.98;;;3.78;;
61840;SDS011;47773;53.174;6.614;2023-07-16T02:26:42;13.45;;;3.60;;
61840;SDS011;47773;53.174;6.614;2023-07-16T02:29:08;19.55;;;4.50;;
61840;SDS011;47773;53.174;6.614;2023-07-16T02:31:34;22.02;;;4.10;;
61840;SDS011;47773;53.174;6.614;2023-07-16T02:34:00;13.88;;;4.40;;
61840;SDS011;47773;53.174;6.614;2023-07-16T02:36:25;16.52;;;4.00;;
61840;SDS011;47773;53.174;6.614;2023-07-16T02:38:51;25.23;;;4.70;;
61840;SDS011;47773;53.174;6.614;2023-07-16T02:41:17;14.93;;;4.82;;
61840;SDS011;47773;53.174;6.614;2023-07-16T02:43:44;17.67;;;4.13;;
61840;SDS011;47773;53.174;6.614;2023-07-16T02:46:10;19.92;;;4.88;;
61840;SDS011;47773;53.174;6.614;2023-07-16T02:48:36;19.23;;;4.88;;
61840;SDS011;47773;53.174;6.614;2023-07-16T02:51:02;17.73;;;4.90;;
61840;SDS011;47773;53.174;6.614;2023-07-16T02:53:27;20.27;;;4.53;;
61840;SDS011;47773;53.174;6.614;2023-07-16T02:55:53;20.60;;;4.93;;
61840;SDS011;47773;53.174;6.614;2023-07-16T02:58:19;25.77;;;5.45;;
61840;SDS011;47773;53.174;6.614;2023-07-16T03:00:44;20.45;;;5.30;;
61840;SDS011;47773;53.174;6.614;2023-07-16T03:03:10;18.27;;;4.45;;
61840;SDS011;47773;53.174;6.614;2023-07-16T03:05:36;14.80;;;4.78;;
61840;SDS011;47773;53.174;6.614;2023-07-16T03:08:01;21.80;;;5.22;;
61840;SDS011;47773;53.174;6.614;2023-07-16T03:10:27;18.48;;;5.47;;
61840;SDS011;47773;53.174;6.614;2023-07-16T03:12:53;22.20;;;4.68;;
61840;SDS011;47773;53.174;6.614;2023-07-16T03:15:19;26.95;;;5.38;;
61840;SDS011;47773;53.174;6.614;2023-07-16T03:17:45;14.80;;;4.47;;
61840;SDS011;47773;53.174;6.614;2023-07-16T03:20:10;15.10;;;4.47;;
61840;SDS011;47773;53.174;6.614;2023-07-16T03:22:38;15.32;;;4.88;;
61840;SDS011;47773;53.174;6.614;2023-07-16T03:25:04;20.25;;;5.10;;
61840;SDS011;47773;53.174;6.614;2023-07-16T03:27:30;20.02;;;5.38;;
61840;SDS011;47773;53.174;6.614;2023-07-16T03:29:56;22.88;;;5.47;;
61840;SDS011;47773;53.174;6.614;2023-07-16T03:32:22;17.55;;;4.97;;
61840;SDS011;47773;53.174;6.614;2023-07-16T03:34:47;21.38;;;5.22;;
61840;SDS011;47773;53.174;6.614;2023-07-16T03:37:13;22.38;;;5.18;;
61840;SDS011;47773;53.174;6.614;2023-07-16T03:39:39;19.92;;;5.63;;
61840;SDS011;47773;53.174;6.614;2023-07-16T03:42:04;21.23;;;5.15;;
61840;SDS011;47773;53.174;6.614;2023-07-16T03:44:30;23.33;;;5.63;;
61840;SDS011;47773;53.174;6.614;2023-07-16T03:46:56;19.77;;;4.80;;
61840;SDS011;47773;53.174;6.614;2023-07-16T03:49:21;18.30;;;5.68;;
61840;SDS011;47773;53.174;6.614;2023-07-16T03:51:47;19.33;;;5.45;;
61840;SDS011;47773;53.174;6.614;2023-07-16T03:54:13;25.20;;;5.07;;
61840;SDS011;47773;53.174;6.614;2023-07-16T03:56:38;19.90;;;5.60;;
61840;SDS011;47773;53.174;6.614;2023-07-16T03:59:04;28.33;;;5.80;;
61840;SDS011;47773;53.174;6.614;2023-07-16T04:01:30;17.58;;;4.80;;
61840;SDS011;47773;53.174;6.614;2023-07-16T04:03:55;19.85;;;5.28;;
61840;SDS011;47773;53.174;6.614;2023-07-16T04:06:21;19.20;;;5.30;;
61840;SDS011;47773;53.174;6.614;2023-07-16T04:08:47;23.05;;;5.32;;
61840;SDS011;47773;53.174;6.614;2023-07-16T04:11:12;17.67;;;5.03;;
61840;SDS011;47773;53.174;6.614;2023-07-16T04:13:38;14.43;;;5.15;;
61840;SDS011;47773;53.174;6.614;2023-07-16T04:16:04;23.20;;;5.80;;
61840;SDS011;47773;53.174;6.614;2023-07-16T04:18:29;22.25;;;5.97;;
61840;SDS011;47773;53.174;6.614;2023-07-16T04:20:55;20.20;;;5.82;;
61840;SDS011;47773;53.174;6.614;2023-07-16T04:23:22;23.38;;;5.85;;
61840;SDS011;47773;53.174;6.614;2023-07-16T04:25:50;14.73;;;5.15;;
61840;SDS011;47773;53.174;6.614;2023-07-16T04:28:18;24.48;;;6.10;;
61840;SDS011;47773;53.174;6.614;2023-07-16T04:30:43;21.15;;;5.13;;
61840;SDS011;47773;53.174;6.614;2023-07-16T04:33:09;22.05;;;5.78;;
61840;SDS011;47773;53.174;6.614;2023-07-16T04:35:35;16.67;;;5.63;;
61840;SDS011;47773;53.174;6.614;2023-07-16T04:38:01;18.35;;;4.97;;
61840;SDS011;47773;53.174;6.614;2023-07-16T04:40:28;19.75;;;5.18;;
61840;SDS011;47773;53.174;6.614;2023-07-16T04:42:54;15.70;;;5.47;;
61840;SDS011;47773;53.174;6.614;2023-07-16T04:45:20;20.35;;;6.05;;
61840;SDS011;47773;53.174;6.614;2023-07-16T04:47:46;19.70;;;6.10;;
61840;SDS011;47773;53.174;6.614;2023-07-16T04:50:11;20.25;;;6.15;;
61840;SDS011;47773;53.174;6.614;2023-07-16T04:52:37;27.88;;;6.28;;
61840;SDS011;47773;53.174;6.614;2023-07-16T04:55:03;19.10;;;5.93;;
61840;SDS011;47773;53.174;6.614;2023-07-16T04:57:29;22.00;;;6.22;;
61840;SDS011;47773;53.174;6.614;2023-07-16T04:59:55;15.25;;;5.88;;
61840;SDS011;47773;53.174;6.614;2023-07-16T05:02:21;20.88;;;5.85;;
61840;SDS011;47773;53.174;6.614;2023-07-16T05:04:46;19.40;;;6.13;;
61840;SDS011;47773;53.174;6.614;2023-07-16T05:07:15;15.85;;;5.47;;
61840;SDS011;47773;53.174;6.614;2023-07-16T05:09:41;20.85;;;6.28;;
61840;SDS011;47773;53.174;6.614;2023-07-16T05:12:08;30.65;;;6.57;;
61840;SDS011;47773;53.174;6.614;2023-07-16T05:14:42;20.17;;;5.80;;
61840;SDS011;47773;53.174;6.614;2023-07-16T05:17:12;16.90;;;5.32;;
61840;SDS011;47773;53.174;6.614;2023-07-16T05:19:38;19.85;;;5.78;;
61840;SDS011;47773;53.174;6.614;2023-07-16T05:22:04;17.33;;;5.55;;
61840;SDS011;47773;53.174;6.614;2023-07-16T05:24:31;19.35;;;5.20;;
61840;SDS011;47773;53.174;6.614;2023-07-16T05:26:57;17.85;;;5.20;;
61840;SDS011;47773;53.174;6.614;2023-07-16T05:29:23;16.20;;;5.05;;
61840;SDS011;47773;53.174;6.614;2023-07-16T05:31:48;18.60;;;5.22;;
61840;SDS011;47773;53.174;6.614;2023-07-16T05:34:14;19.33;;;5.20;;
61840;SDS011;47773;53.174;6.614;2023-07-16T05:36:41;21.00;;;4.72;;
61840;SDS011;47773;53.174;6.614;2023-07-16T05:39:07;21.67;;;5.40;;
61840;SDS011;47773;53.174;6.614;2023-07-16T05:41:33;16.33;;;5.18;;
61840;SDS011;47773;53.174;6.614;2023-07-16T05:43:59;17.23;;;5.63;;
61840;SDS011;47773;53.174;6.614;2023-07-16T05:46:25;17.90;;;4.95;;
61840;SDS011;47773;53.174;6.614;2023-07-16T05:48:51;15.98;;;4.63;;
61840;SDS011;47773;53.174;6.614;2023-07-16T05:51:17;17.20;;;4.68;;
61840;SDS011;47773;53.174;6.614;2023-07-16T05:53:42;14.70;;;5.40;;
61840;SDS011;47773;53.174;6.614;2023-07-16T05:56:08;17.95;;;4.60;;
61840;SDS011;47773;53.174;6.614;2023-07-16T05:58:34;17.73;;;4.65;;
61840;SDS011;47773;53.174;6.614;2023-07-16T06:00:59;17.98;;;4.97;;
61840;SDS011;47773;53.174;6.614;2023-07-16T06:03:25;13.48;;;4.55;;
61840;SDS011;47773;53.174;6.614;2023-07-16T06:05:51;19.95;;;5.32;;
61840;SDS011;47773;53.174;6.614;2023-07-16T06:08:17;14.98;;;4.53;;
61840;SDS011;47773;53.174;6.614;2023-07-16T06:10:42;18.98;;;4.90;;
61840;SDS011;47773;53.174;6.614;2023-07-16T06:13:08;15.98;;;4.38;;
61840;SDS011;47773;53.174;6.614;2023-07-16T06:15:34;17.90;;;4.03;;
61840;SDS011;47773;53.174;6.614;2023-07-16T06:17:59;12.23;;;4.50;;
61840;SDS011;47773;53.174;6.614;2023-07-16T06:20:25;14.93;;;4.40;;
61840;SDS011;47773;53.174;6.614;2023-07-16T06:22:51;14.25;;;4.90;;
61840;SDS011;47773;53.174;6.614;2023-07-16T06:25:16;26.45;;;4.65;;
61840;SDS011;47773;53.174;6.614;2023-07-16T06:27:42;19.90;;;5.05;;
61840;SDS011;47773;53.174;6.614;2023-07-16T06:30:08;13.80;;;3.88;;
61840;SDS011;47773;53.174;6.614;2023-07-16T06:32:33;14.43;;;4.60;;
61840;SDS011;47773;53.174;6.614;2023-07-16T06:34:59;20.95;;;4.55;;
61840;SDS011;47773;53.174;6.614;2023-07-16T06:37:25;21.52;;;5.03;;
61840;SDS011;47773;53.174;6.614;2023-07-16T06:39:50;22.00;;;4.80;;
61840;SDS011;47773;53.174;6.614;2023-07-16T06:42:16;18.17;;;4.85;;
61840;SDS011;47773;53.174;6.614;2023-07-16T06:44:42;20.67;;;4.95;;
61840;SDS011;47773;53.174;6.614;2023-07-16T06:47:08;17.20;;;4.78;;
61840;SDS011;47773;53.174;6.614;2023-07-16T06:49:33;16.33;;;4.63;;
61840;SDS011;47773;53.174;6.614;2023-07-16T06:52:02;17.60;;;5.20;;
61840;SDS011;47773;53.174;6.614;2023-07-16T06:54:28;21.17;;;5.40;;
61840;SDS011;47773;53.174;6.614;2023-07-16T06:56:53;18.63;;;5.63;;
61840;SDS011;47773;53.174;6.614;2023-07-16T06:59:19;14.57;;;4.65;;
61840;SDS011;47773;53.174;6.614;2023-07-16T07:01:45;14.55;;;4.70;;
61840;SDS011;47773;53.174;6.614;2023-07-16T07:04:10;18.90;;;4.95;;
61840;SDS011;47773;53.174;6.614;2023-07-16T07:06:36;20.58;;;5.38;;
61840;SDS011;47773;53.174;6.614;2023-07-16T07:09:02;18.30;;;5.80;;
61840;SDS011;47773;53.174;6.614;2023-07-16T07:11:28;15.13;;;5.22;;
61840;SDS011;47773;53.174;6.614;2023-07-16T07:13:54;17.27;;;5.82;;
61840;SDS011;47773;53.174;6.614;2023-07-16T07:16:21;36.90;;;4.97;;
61840;SDS011;47773;53.174;6.614;2023-07-16T07:18:47;22.98;;;5.03;;
61840;SDS011;47773;53.174;6.614;2023-07-16T07:21:13;14.13;;;4.85;;
61840;SDS011;47773;53.174;6.614;2023-07-16T07:23:38;21.90;;;5.25;;
61840;SDS011;47773;53.174;6.614;2023-07-16T07:26:05;14.63;;;4.93;;
61840;SDS011;47773;53.174;6.614;2023-07-16T07:28:30;18.33;;;5.70;;
61840;SDS011;47773;53.174;6.614;2023-07-16T07:30:56;14.95;;;4.88;;
61840;SDS011;47773;53.174;6.614;2023-07-16T07:33:22;16.70;;;5.38;;
61840;SDS011;47773;53.174;6.614;2023-07-16T07:35:47;16.83;;;5.25;;
61840;SDS011;47773;53.174;6.614;2023-07-16T07:38:13;16.00;;;5.47;;
61840;SDS011;47773;53.174;6.614;2023-07-16T07:40:39;17.40;;;5.55;;
61840;SDS011;47773;53.174;6.614;2023-07-16T07:43:08;11.63;;;5.00;;
61840;SDS011;47773;53.174;6.614;2023-07-16T07:45:33;19.48;;;5.30;;
61840;SDS011;47773;53.174;6.614;2023-07-16T07:47:59;10.35;;;4.63;;
61840;SDS011;47773;53.174;6.614;2023-07-16T07:50:25;19.23;;;5.95;;
61840;SDS011;47773;53.174;6.614;2023-07-16T07:52:50;15.70;;;4.80;;
61840;SDS011;47773;53.174;6.614;2023-07-16T07:55:16;13.77;;;5.68;;
61840;SDS011;47773;53.174;6.614;2023-07-16T07:57:42;18.23;;;5.28;;
61840;SDS011;47773;53.174;6.614;2023-07-16T08:00:07;15.77;;;4.97;;
61840;SDS011;47773;53.174;6.614;2023-07-16T08:02:36;17.35;;;5.53;;
61840;SDS011;47773;53.174;6.614;2023-07-16T08:05:02;15.88;;;5.15;;
61840;SDS011;47773;53.174;6.614;2023-07-16T08:07:29;13.05;;;5.10;;
61840;SDS011;47773;53.174;6.614;2023-07-16T08:09:54;13.38;;;5.03;;
61840;SDS011;47773;53.174;6.614;2023-07-16T08:12:20;12.48;;;5.15;;
61840;SDS011;47773;53.174;6.614;2023-07-16T08:14:46;18.13;;;4.70;;
61840;SDS011;47773;53.174;6.614;2023-07-16T08:17:12;15.10;;;5.25;;
61840;SDS011;47773;53.174;6.614;2023-07-16T08:19:38;16.40;;;5.00;;
61840;SDS011;47773;53.174;6.614;2023-07-16T08:22:04;18.33;;;4.72;;
61840;SDS011;47773;53.174;6.614;2023-07-16T08:24:30;19.55;;;5.10;;
61840;SDS011;47773;53.174;6.614;2023-07-16T08:26:55;15.38;;;5.03;;
61840;SDS011;47773;53.174;6.614;2023-07-16T08:29:21;19.13;;;5.10;;
61840;SDS011;47773;53.174;6.614;2023-07-16T08:31:47;16.92;;;5.00;;
61840;SDS011;47773;53.174;6.614;2023-07-16T08:34:12;18.92;;;5.03;;
61840;SDS011;47773;53.174;6.614;2023-07-16T08:36:38;15.85;;;4.78;;
61840;SDS011;47773;53.174;6.614;2023-07-16T08:39:04;20.55;;;5.72;;
61840;SDS011;47773;53.174;6.614;2023-07-16T08:41:30;13.77;;;4.90;;
61840;SDS011;47773;53.174;6.614;2023-07-16T08:43:56;18.98;;;5.18;;
61840;SDS011;47773;53.174;6.614;2023-07-16T08:46:22;12.15;;;4.95;;
61840;SDS011;47773;53.174;6.614;2023-07-16T08:48:49;15.90;;;4.93;;
61840;SDS011;47773;53.174;6.614;2023-07-16T08:51:16;16.60;;;5.32;;
61840;SDS011;47773;53.174;6.614;2023-07-16T08:53:44;14.45;;;5.55;;
61840;SDS011;47773;53.174;6.614;2023-07-16T08:56:10;19.10;;;5.88;;
61840;SDS011;47773;53.174;6.614;2023-07-16T08:58:36;22.65;;;6.10;;
61840;SDS011;47773;53.174;6.614;2023-07-16T09:01:03;21.38;;;5.65;;
61840;SDS011;47773;53.174;6.614;2023-07-16T09:03:30;12.60;;;5.25;;
61840;SDS011;47773;53.174;6.614;2023-07-16T09:05:56;12.98;;;5.60;;
61840;SDS011;47773;53.174;6.614;2023-07-16T09:08:22;15.18;;;5.28;;
61840;SDS011;47773;53.174;6.614;2023-07-16T09:10:56;15.13;;;5.60;;
61840;SDS011;47773;53.174;6.614;2023-07-16T09:13:25;14.80;;;5.10;;
61840;SDS011;47773;53.174;6.614;2023-07-16T09:15:56;13.02;;;4.75;;
61840;SDS011;47773;53.174;6.614;2023-07-16T09:18:26;14.80;;;5.32;;
61840;SDS011;47773;53.174;6.614;2023-07-16T09:20:58;17.45;;;5.18;;
61840;SDS011;47773;53.174;6.614;2023-07-16T09:23:30;13.82;;;5.07;;
61840;SDS011;47773;53.174;6.614;2023-07-16T09:25:56;15.20;;;4.95;;
61840;SDS011;47773;53.174;6.614;2023-07-16T09:28:21;13.80;;;4.93;;
61840;SDS011;47773;53.174;6.614;2023-07-16T09:30:48;18.17;;;5.13;;
61840;SDS011;47773;53.174;6.614;2023-07-16T09:33:15;14.48;;;4.63;;
61840;SDS011;47773;53.174;6.614;2023-07-16T09:35:43;14.55;;;5.30;;
61840;SDS011;47773;53.174;6.614;2023-07-16T09:38:09;18.15;;;5.20;;
61840;SDS011;47773;53.174;6.614;2023-07-16T09:40:36;18.48;;;5.18;;
61840;SDS011;47773;53.174;6.614;2023-07-16T09:43:03;14.65;;;5.05;;
61840;SDS011;47773;53.174;6.614;2023-07-16T09:45:29;15.48;;;4.97;;
61840;SDS011;47773;53.174;6.614;2023-07-16T09:47:55;21.27;;;5.22;;
61840;SDS011;47773;53.174;6.614;2023-07-16T09:50:24;15.73;;;5.25;;
61840;SDS011;47773;53.174;6.614;2023-07-16T09:52:56;14.70;;;5.13;;
61840;SDS011;47773;53.174;6.614;2023-07-16T09:55:22;22.27;;;5.45;;
61840;SDS011;47773;53.174;6.614;2023-07-16T09:57:48;13.40;;;5.30;;
61840;SDS011;47773;53.174;6.614;2023-07-16T10:00:15;15.77;;;5.05;;
61840;SDS011;47773;53.174;6.614;2023-07-16T10:02:42;12.88;;;4.40;;
61840;SDS011;47773;53.174;6.614;2023-07-16T10:07:40;17.60;;;4.97;;
61840;SDS011;47773;53.174;6.614;2023-07-16T10:10:10;15.32;;;4.93;;
61840;SDS011;47773;53.174;6.614;2023-07-16T10:12:36;12.27;;;4.53;;
61840;SDS011;47773;53.174;6.614;2023-07-16T10:15:05;12.32;;;3.85;;
61840;SDS011;47773;53.174;6.614;2023-07-16T10:17:31;17.45;;;5.05;;
61840;SDS011;47773;53.174;6.614;2023-07-16T10:19:58;16.45;;;5.43;;
61840;SDS011;47773;53.174;6.614;2023-07-16T10:22:31;16.63;;;4.95;;
61840;SDS011;47773;53.174;6.614;2023-07-16T10:24:58;13.68;;;5.30;;
61840;SDS011;47773;53.174;6.614;2023-07-16T10:27:28;17.63;;;5.20;;
61840;SDS011;47773;53.174;6.614;2023-07-16T10:29:54;17.08;;;5.50;;
61840;SDS011;47773;53.174;6.614;2023-07-16T10:32:20;15.50;;;5.93;;
61840;SDS011;47773;53.174;6.614;2023-07-16T10:34:46;14.73;;;4.88;;
61840;SDS011;47773;53.174;6.614;2023-07-16T10:37:12;14.07;;;4.90;;
61840;SDS011;47773;53.174;6.614;2023-07-16T10:39:47;10.30;;;4.80;;
61840;SDS011;47773;53.174;6.614;2023-07-16T10:42:15;20.48;;;4.80;;
61840;SDS011;47773;53.174;6.614;2023-07-16T10:44:42;15.85;;;4.88;;
61840;SDS011;47773;53.174;6.614;2023-07-16T10:47:08;15.77;;;5.00;;
61840;SDS011;47773;53.174;6.614;2023-07-16T10:49:35;15.55;;;5.20;;
61840;SDS011;47773;53.174;6.614;2023-07-16T10:52:01;12.48;;;5.05;;
61840;SDS011;47773;53.174;6.614;2023-07-16T10:54:27;15.95;;;5.20;;
61840;SDS011;47773;53.174;6.614;2023-07-16T10:56:52;16.20;;;5.47;;
61840;SDS011;47773;53.174;6.614;2023-07-16T10:59:18;11.45;;;5.00;;
61840;SDS011;47773;53.174;6.614;2023-07-16T11:01:44;17.08;;;5.22;;
61840;SDS011;47773;53.174;6.614;2023-07-16T11:04:11;15.90;;;5.45;;
61840;SDS011;47773;53.174;6.614;2023-07-16T11:06:36;15.65;;;5.25;;
61840;SDS011;47773;53.174;6.614;2023-07-16T11:09:05;13.43;;;5.40;;
61840;SDS011;47773;53.174;6.614;2023-07-16T11:11:34;12.45;;;5.20;;
61840;SDS011;47773;53.174;6.614;2023-07-16T11:14:02;16.40;;;4.80;;
61840;SDS011;47773;53.174;6.614;2023-07-16T11:16:32;17.35;;;4.93;;
61840;SDS011;47773;53.174;6.614;2023-07-16T11:19:03;10.63;;;5.03;;
61840;SDS011;47773;53.174;6.614;2023-07-16T11:21:31;17.65;;;4.97;;
61840;SDS011;47773;53.174;6.614;2023-07-16T11:24:12;18.88;;;4.97;;
61840;SDS011;47773;53.174;6.614;2023-07-16T11:26:48;16.98;;;4.80;;
61840;SDS011;47773;53.174;6.614;2023-07-16T11:29:17;13.95;;;4.55;;
61840;SDS011;47773;53.174;6.614;2023-07-16T11:31:43;12.57;;;4.60;;
61840;SDS011;47773;53.174;6.614;2023-07-16T11:34:15;12.93;;;4.60;;
61840;SDS011;47773;53.174;6.614;2023-07-16T11:36:41;12.50;;;4.93;;
61840;SDS011;47773;53.174;6.614;2023-07-16T11:39:07;13.75;;;4.50;;
61840;SDS011;47773;53.174;6.614;2023-07-16T11:41:35;12.77;;;4.25;;
61840;SDS011;47773;53.174;6.614;2023-07-16T11:44:02;12.20;;;4.47;;
61840;SDS011;47773;53.174;6.614;2023-07-16T11:46:31;20.25;;;4.78;;
61840;SDS011;47773;53.174;6.614;2023-07-16T11:48:58;16.10;;;5.00;;
61840;SDS011;47773;53.174;6.614;2023-07-16T11:51:24;13.88;;;4.72;;
61840;SDS011;47773;53.174;6.614;2023-07-16T11:53:50;14.13;;;5.28;;
61840;SDS011;47773;53.174;6.614;2023-07-16T11:56:15;16.23;;;5.43;;
61840;SDS011;47773;53.174;6.614;2023-07-16T11:58:41;17.77;;;5.82;;
61840;SDS011;47773;53.174;6.614;2023-07-16T12:01:07;14.10;;;5.13;;
61840;SDS011;47773;53.174;6.614;2023-07-16T12:03:33;13.98;;;5.05;;
61840;SDS011;47773;53.174;6.614;2023-07-16T12:05:59;16.13;;;5.60;;
61840;SDS011;47773;53.174;6.614;2023-07-16T12:08:25;13.57;;;5.28;;
61840;SDS011;47773;53.174;6.614;2023-07-16T12:10:50;14.65;;;6.18;;
61840;SDS011;47773;53.174;6.614;2023-07-16T12:13:16;17.17;;;5.38;;
61840;SDS011;47773;53.174;6.614;2023-07-16T12:15:42;13.32;;;5.65;;
61840;SDS011;47773;53.174;6.614;2023-07-16T12:18:07;13.57;;;5.18;;
61840;SDS011;47773;53.174;6.614;2023-07-16T12:20:34;14.50;;;5.40;;
61840;SDS011;47773;53.174;6.614;2023-07-16T12:23:01;17.13;;;5.00;;
61840;SDS011;47773;53.174;6.614;2023-07-16T12:25:28;13.43;;;5.18;;
61840;SDS011;47773;53.174;6.614;2023-07-16T12:27:54;18.05;;;5.75;;
61840;SDS011;47773;53.174;6.614;2023-07-16T12:30:19;15.02;;;5.50;;
61840;SDS011;47773;53.174;6.614;2023-07-16T12:32:45;15.40;;;5.40;;
61840;SDS011;47773;53.174;6.614;2023-07-16T12:35:11;12.45;;;5.07;;
61840;SDS011;47773;53.174;6.614;2023-07-16T12:37:37;15.05;;;5.72;;
61840;SDS011;47773;53.174;6.614;2023-07-16T12:40:02;13.85;;;5.43;;
61840;SDS011;47773;53.174;6.614;2023-07-16T12:42:28;13.23;;;5.25;;
61840;SDS011;47773;53.174;6.614;2023-07-16T12:44:54;14.82;;;5.55;;
61840;SDS011;47773;53.174;6.614;2023-07-16T12:47:20;15.95;;;5.95;;
61840;SDS011;47773;53.174;6.614;2023-07-16T12:49:45;11.32;;;4.95;;
61840;SDS011;47773;53.174;6.614;2023-07-16T12:52:11;14.68;;;5.60;;
61840;SDS011;47773;53.174;6.614;2023-07-16T12:54:37;13.10;;;5.03;;
61840;SDS011;47773;53.174;6.614;2023-07-16T12:57:03;11.40;;;5.15;;
61840;SDS011;47773;53.174;6.614;2023-07-16T12:59:29;14.50;;;5.60;;
61840;SDS011;47773;53.174;6.614;2023-07-16T13:01:54;11.88;;;5.13;;
61840;SDS011;47773;53.174;6.614;2023-07-16T13:04:21;11.73;;;5.03;;
61840;SDS011;47773;53.174;6.614;2023-07-16T13:06:46;11.77;;;5.38;;
61840;SDS011;47773;53.174;6.614;2023-07-16T13:09:13;13.70;;;4.82;;
61840;SDS011;47773;53.174;6.614;2023-07-16T13:11:40;12.77;;;5.05;;
61840;SDS011;47773;53.174;6.614;2023-07-16T13:14:06;16.45;;;4.78;;
61840;SDS011;47773;53.174;6.614;2023-07-16T13:16:32;14.05;;;4.30;;
61840;SDS011;47773;53.174;6.614;2023-07-16T13:18:57;14.98;;;4.68;;
61840;SDS011;47773;53.174;6.614;2023-07-16T13:21:23;14.80;;;4.88;;
61840;SDS011;47773;53.174;6.614;2023-07-16T13:23:49;13.32;;;4.95;;
61840;SDS011;47773;53.174;6.614;2023-07-16T13:26:14;11.77;;;4.50;;
61840;SDS011;47773;53.174;6.614;2023-07-16T13:28:40;15.27;;;4.70;;
61840;SDS011;47773;53.174;6.614;2023-07-16T13:31:06;11.10;;;4.80;;
61840;SDS011;47773;53.174;6.614;2023-07-16T13:33:31;12.93;;;4.63;;
61840;SDS011;47773;53.174;6.614;2023-07-16T13:35:57;11.70;;;4.80;;
61840;SDS011;47773;53.174;6.614;2023-07-16T13:38:26;13.13;;;4.50;;
61840;SDS011;47773;53.174;6.614;2023-07-16T13:40:52;19.25;;;4.43;;
61840;SDS011;47773;53.174;6.614;2023-07-16T13:43:17;11.65;;;4.45;;
61840;SDS011;47773;53.174;6.614;2023-07-16T13:45:43;13.90;;;4.13;;
61840;SDS011;47773;53.174;6.614;2023-07-16T13:48:09;12.10;;;3.83;;
61840;SDS011;47773;53.174;6.614;2023-07-16T13:50:34;14.52;;;3.65;;
61840;SDS011;47773;53.174;6.614;2023-07-16T13:53:00;9.48;;;3.45;;
61840;SDS011;47773;53.174;6.614;2023-07-16T13:55:27;13.23;;;3.60;;
61840;SDS011;47773;53.174;6.614;2023-07-16T13:57:53;13.93;;;3.45;;
61840;SDS011;47773;53.174;6.614;2023-07-16T14:00:20;13.15;;;3.30;;
61840;SDS011;47773;53.174;6.614;2023-07-16T14:02:46;14.13;;;3.13;;
61840;SDS011;47773;53.174;6.614;2023-07-16T14:05:12;15.80;;;2.92;;
61840;SDS011;47773;53.174;6.614;2023-07-16T14:07:38;15.00;;;3.25;;
61840;SDS011;47773;53.174;6.614;2023-07-16T14:10:04;12.35;;;2.50;;
61840;SDS011;47773;53.174;6.614;2023-07-16T14:12:30;17.08;;;3.17;;
61840;SDS011;47773;53.174;6.614;2023-07-16T14:14:55;15.65;;;3.10;;
61840;SDS011;47773;53.174;6.614;2023-07-16T14:17:21;14.55;;;2.72;;
61840;SDS011;47773;53.174;6.614;2023-07-16T14:19:48;16.58;;;2.28;;
61840;SDS011;47773;53.174;6.614;2023-07-16T14:22:14;19.90;;;2.80;;
61840;SDS011;47773;53.174;6.614;2023-07-16T14:24:40;22.00;;;2.75;;
61840;SDS011;47773;53.174;6.614;2023-07-16T14:27:06;13.05;;;2.25;;
61840;SDS011;47773;53.174;6.614;2023-07-16T14:29:33;16.25;;;2.53;;
61840;SDS011;47773;53.174;6.614;2023-07-16T14:32:00;15.18;;;2.65;;
61840;SDS011;47773;53.174;6.614;2023-07-16T14:34:26;19.85;;;2.40;;